sensor_id;sensor_type;location;lat;lon;timestamp;P1;durP1;ratioP1;P2;durP2;ratioP2
22107;SDS011;11220;48.812;9.128;2023-04-16T00:02:12;0.35;;;0.20;;
22107;SDS011;11220;48.812;9.128;2023-04-16T00:04:38;0.20;;;0.20;;
22107;SDS011;11220;48.812;9.128;2023-04-16T00:07:03;0.20;;;0.20;;
22107;SDS011;11220;48.812;9.128;2023-04-16T00:09:29;0.30;;;0.13;;
22107;SDS011;11220;48.812;9.128;2023-04-16T00:11:54;0.30;;;0.20;;
22107;SDS011;11220;48.812;9.128;2023-04-16T00:14:20;0.20;;;0.20;;
22107;SDS011;11220;48.812;9.128;2023-04-16T00:16:46;0.20;;;0.20;;
22107;SDS011;11220;48.812;9.128;2023-04-16T00:19:11;0.10;;;0.10;;
22107;SDS011;11220;48.812;9.128;2023-04-16T00:21:37;0.17;;;0.10;;
22107;SDS011;11220;48.812;9.128;2023-04-16T00:24:02;0.22;;;0.22;;
22107;SDS011;11220;48.812;9.128;2023-04-16T00:26:28;0.20;;;0.20;;
22107;SDS011;11220;48.812;9.128;2023-04-16T00:28:53;0.10;;;0.10;;
22107;SDS011;11220;48.812;9.128;2023-04-16T00:31:25;0.50;;;0.30;;
22107;SDS011;11220;48.812;9.128;2023-04-16T00:33:52;0.20;;;0.20;;
22107;SDS011;11220;48.812;9.128;2023-04-16T00:36:18;0.10;;;0.10;;
22107;SDS011;11220;48.812;9.128;2023-04-16T00:38:43;0.10;;;0.10;;
22107;SDS011;11220;48.812;9.128;2023-04-16T00:41:09;0.30;;;0.20;;
22107;SDS011;11220;48.812;9.128;2023-04-16T00:43:34;0.20;;;0.20;;
22107;SDS011;11220;48.812;9.128;2023-04-16T00:46:00;0.20;;;0.20;;
22107;SDS011;11220;48.812;9.128;2023-04-16T00:48:30;0.20;;;0.20;;
22107;SDS011;11220;48.812;9.128;2023-04-16T00:50:57;0.30;;;0.30;;
22107;SDS011;11220;48.812;9.128;2023-04-16T00:53:25;0.20;;;0.20;;
22107;SDS011;11220;48.812;9.128;2023-04-16T00:55:50;0.20;;;0.20;;
22107;SDS011;11220;48.812;9.128;2023-04-16T00:58:16;0.10;;;0.10;;
22107;SDS011;11220;48.812;9.128;2023-04-16T01:00:42;0.20;;;0.20;;
22107;SDS011;11220;48.812;9.128;2023-04-16T01:03:08;0.20;;;0.20;;
22107;SDS011;11220;48.812;9.128;2023-04-16T01:05:34;0.10;;;0.10;;
22107;SDS011;11220;48.812;9.128;2023-04-16T01:08:00;0.20;;;0.20;;
22107;SDS011;11220;48.812;9.128;2023-04-16T01:10:27;0.22;;;0.22;;
22107;SDS011;11220;48.812;9.128;2023-04-16T01:12:53;0.10;;;0.10;;
22107;SDS011;11220;48.812;9.128;2023-04-16T01:15:18;0.20;;;0.20;;
22107;SDS011;11220;48.812;9.128;2023-04-16T01:17:47;0.20;;;0.20;;
22107;SDS011;11220;48.812;9.128;2023-04-16T01:20:12;0.30;;;0.30;;
22107;SDS011;11220;48.812;9.128;2023-04-16T01:22:38;0.22;;;0.22;;
22107;SDS011;11220;48.812;9.128;2023-04-16T01:25:04;0.35;;;0.20;;
22107;SDS011;11220;48.812;9.128;2023-04-16T01:27:30;0.10;;;0.10;;
22107;SDS011;11220;48.812;9.128;2023-04-16T01:29:56;0.20;;;0.20;;
22107;SDS011;11220;48.812;9.128;2023-04-16T01:32:22;0.10;;;0.10;;
22107;SDS011;11220;48.812;9.128;2023-04-16T01:34:47;0.28;;;0.22;;
22107;SDS011;11220;48.812;9.128;2023-04-16T01:37:13;0.10;;;0.10;;
22107;SDS011;11220;48.812;9.128;2023-04-16T01:39:38;0.20;;;0.20;;
22107;SDS011;11220;48.812;9.128;2023-04-16T01:42:04;0.25;;;0.25;;
22107;SDS011;11220;48.812;9.128;2023-04-16T01:44:29;0.20;;;0.20;;
22107;SDS011;11220;48.812;9.128;2023-04-16T01:46:55;0.10;;;0.10;;
22107;SDS011;11220;48.812;9.128;2023-04-16T01:49:21;0.20;;;0.20;;
22107;SDS011;11220;48.812;9.128;2023-04-16T01:51:46;0.20;;;0.20;;
22107;SDS011;11220;48.812;9.128;2023-04-16T01:54:12;0.20;;;0.20;;
22107;SDS011;11220;48.812;9.128;2023-04-16T01:56:38;0.20;;;0.20;;
22107;SDS011;11220;48.812;9.128;2023-04-16T01:59:03;0.30;;;0.28;;
22107;SDS011;11220;48.812;9.128;2023-04-16T02:01:29;0.15;;;0.15;;
22107;SDS011;11220;48.812;9.128;2023-04-16T02:03:55;0.20;;;0.20;;
22107;SDS011;11220;48.812;9.128;2023-04-16T02:06:21;0.20;;;0.20;;
22107;SDS011;11220;48.812;9.128;2023-04-16T02:08:46;0.30;;;0.20;;
22107;SDS011;11220;48.812;9.128;2023-04-16T02:11:12;0.22;;;0.20;;
22107;SDS011;11220;48.812;9.128;2023-04-16T02:13:38;0.10;;;0.10;;
22107;SDS011;11220;48.812;9.128;2023-04-16T02:16:03;0.13;;;0.13;;
22107;SDS011;11220;48.812;9.128;2023-04-16T02:18:29;0.20;;;0.20;;
22107;SDS011;11220;48.812;9.128;2023-04-16T02:20:56;0.25;;;0.25;;
22107;SDS011;11220;48.812;9.128;2023-04-16T02:23:23;0.20;;;0.20;;
22107;SDS011;11220;48.812;9.128;2023-04-16T02:25:49;0.30;;;0.30;;
22107;SDS011;11220;48.812;9.128;2023-04-16T02:28:15;0.40;;;0.40;;
22107;SDS011;11220;48.812;9.128;2023-04-16T02:30:41;0.20;;;0.20;;
22107;SDS011;11220;48.812;9.128;2023-04-16T02:33:07;0.28;;;0.28;;
22107;SDS011;11220;48.812;9.128;2023-04-16T02:35:34;0.15;;;0.15;;
22107;SDS011;11220;48.812;9.128;2023-04-16T02:38:01;0.25;;;0.25;;
22107;SDS011;11220;48.812;9.128;2023-04-16T02:40:27;0.20;;;0.20;;
22107;SDS011;11220;48.812;9.128;2023-04-16T02:42:53;0.35;;;0.20;;
22107;SDS011;11220;48.812;9.128;2023-04-16T02:45:18;0.20;;;0.20;;
22107;SDS011;11220;48.812;9.128;2023-04-16T02:47:45;0.20;;;0.20;;
22107;SDS011;11220;48.812;9.128;2023-04-16T02:50:10;0.20;;;0.20;;
22107;SDS011;11220;48.812;9.128;2023-04-16T02:52:36;0.20;;;0.20;;
22107;SDS011;11220;48.812;9.128;2023-04-16T02:55:01;0.20;;;0.20;;
22107;SDS011;11220;48.812;9.128;2023-04-16T02:57:27;0.30;;;0.30;;
22107;SDS011;11220;48.812;9.128;2023-04-16T02:59:53;0.20;;;0.20;;
22107;SDS011;11220;48.812;9.128;2023-04-16T03:02:18;0.20;;;0.10;;
22107;SDS011;11220;48.812;9.128;2023-04-16T03:04:44;0.20;;;0.20;;
22107;SDS011;11220;48.812;9.128;2023-04-16T03:07:10;0.20;;;0.20;;
22107;SDS011;11220;48.812;9.128;2023-04-16T03:09:36;0.40;;;0.25;;
22107;SDS011;11220;48.812;9.128;2023-04-16T03:12:02;0.30;;;0.30;;
22107;SDS011;11220;48.812;9.128;2023-04-16T03:14:28;0.13;;;0.13;;
22107;SDS011;11220;48.812;9.128;2023-04-16T03:16:54;0.20;;;0.20;;
22107;SDS011;11220;48.812;9.128;2023-04-16T03:19:20;0.28;;;0.22;;
22107;SDS011;11220;48.812;9.128;2023-04-16T03:21:46;0.15;;;0.15;;
22107;SDS011;11220;48.812;9.128;2023-04-16T03:24:11;0.22;;;0.22;;
22107;SDS011;11220;48.812;9.128;2023-04-16T03:26:37;0.10;;;0.10;;
22107;SDS011;11220;48.812;9.128;2023-04-16T03:29:03;0.22;;;0.22;;
22107;SDS011;11220;48.812;9.128;2023-04-16T03:31:28;0.30;;;0.30;;
22107;SDS011;11220;48.812;9.128;2023-04-16T03:33:54;0.20;;;0.20;;
22107;SDS011;11220;48.812;9.128;2023-04-16T03:36:20;0.30;;;0.30;;
22107;SDS011;11220;48.812;9.128;2023-04-16T03:38:46;0.20;;;0.20;;
22107;SDS011;11220;48.812;9.128;2023-04-16T03:41:12;0.30;;;0.30;;
22107;SDS011;11220;48.812;9.128;2023-04-16T03:43:38;0.30;;;0.30;;
22107;SDS011;11220;48.812;9.128;2023-04-16T03:46:03;0.30;;;0.20;;
22107;SDS011;11220;48.812;9.128;2023-04-16T03:48:29;0.30;;;0.30;;
22107;SDS011;11220;48.812;9.128;2023-04-16T03:50:54;0.40;;;0.40;;
22107;SDS011;11220;48.812;9.128;2023-04-16T03:53:20;0.20;;;0.17;;
22107;SDS011;11220;48.812;9.128;2023-04-16T03:55:48;0.20;;;0.20;;
22107;SDS011;11220;48.812;9.128;2023-04-16T03:58:15;0.30;;;0.30;;
22107;SDS011;11220;48.812;9.128;2023-04-16T04:00:41;0.25;;;0.25;;
22107;SDS011;11220;48.812;9.128;2023-04-16T04:03:07;0.20;;;0.20;;
22107;SDS011;11220;48.812;9.128;2023-04-16T04:05:36;0.30;;;0.30;;
22107;SDS011;11220;48.812;9.128;2023-04-16T04:08:05;0.20;;;0.20;;
22107;SDS011;11220;48.812;9.128;2023-04-16T04:10:31;0.30;;;0.30;;
22107;SDS011;11220;48.812;9.128;2023-04-16T04:12:58;0.30;;;0.30;;
22107;SDS011;11220;48.812;9.128;2023-04-16T04:15:23;0.30;;;0.30;;
22107;SDS011;11220;48.812;9.128;2023-04-16T04:17:49;0.32;;;0.32;;
22107;SDS011;11220;48.812;9.128;2023-04-16T04:20:14;0.65;;;0.40;;
22107;SDS011;11220;48.812;9.128;2023-04-16T04:22:40;0.30;;;0.30;;
22107;SDS011;11220;48.812;9.128;2023-04-16T04:25:07;0.32;;;0.20;;
22107;SDS011;11220;48.812;9.128;2023-04-16T04:27:34;0.30;;;0.30;;
22107;SDS011;11220;48.812;9.128;2023-04-16T04:29:59;0.75;;;0.40;;
22107;SDS011;11220;48.812;9.128;2023-04-16T04:32:25;0.38;;;0.32;;
22107;SDS011;11220;48.812;9.128;2023-04-16T04:34:50;0.30;;;0.30;;
22107;SDS011;11220;48.812;9.128;2023-04-16T04:37:16;0.38;;;0.38;;
22107;SDS011;11220;48.812;9.128;2023-04-16T04:39:41;0.82;;;0.30;;
22107;SDS011;11220;48.812;9.128;2023-04-16T04:42:07;0.35;;;0.30;;
22107;SDS011;11220;48.812;9.128;2023-04-16T04:44:33;0.30;;;0.30;;
22107;SDS011;11220;48.812;9.128;2023-04-16T04:46:58;0.40;;;0.20;;
22107;SDS011;11220;48.812;9.128;2023-04-16T04:49:24;0.30;;;0.30;;
22107;SDS011;11220;48.812;9.128;2023-04-16T04:51:49;0.20;;;0.20;;
22107;SDS011;11220;48.812;9.128;2023-04-16T04:54:15;0.30;;;0.20;;
22107;SDS011;11220;48.812;9.128;2023-04-16T04:56:41;0.20;;;0.20;;
22107;SDS011;11220;48.812;9.128;2023-04-16T04:59:09;0.20;;;0.20;;
22107;SDS011;11220;48.812;9.128;2023-04-16T05:01:35;0.22;;;0.22;;
22107;SDS011;11220;48.812;9.128;2023-04-16T05:04:00;0.20;;;0.20;;
22107;SDS011;11220;48.812;9.128;2023-04-16T05:06:26;0.13;;;0.13;;
22107;SDS011;11220;48.812;9.128;2023-04-16T05:08:51;0.20;;;0.20;;
22107;SDS011;11220;48.812;9.128;2023-04-16T05:11:17;0.20;;;0.20;;
22107;SDS011;11220;48.812;9.128;2023-04-16T05:13:42;0.40;;;0.25;;
22107;SDS011;11220;48.812;9.128;2023-04-16T05:16:08;0.20;;;0.20;;
22107;SDS011;11220;48.812;9.128;2023-04-16T05:18:33;0.20;;;0.20;;
22107;SDS011;11220;48.812;9.128;2023-04-16T05:20:59;0.30;;;0.30;;
22107;SDS011;11220;48.812;9.128;2023-04-16T05:23:24;0.10;;;0.10;;
22107;SDS011;11220;48.812;9.128;2023-04-16T05:25:50;0.20;;;0.20;;
22107;SDS011;11220;48.812;9.128;2023-04-16T05:28:15;0.10;;;0.10;;
22107;SDS011;11220;48.812;9.128;2023-04-16T05:30:41;0.10;;;0.10;;
22107;SDS011;11220;48.812;9.128;2023-04-16T05:33:06;0.43;;;0.20;;
22107;SDS011;11220;48.812;9.128;2023-04-16T05:35:32;0.20;;;0.10;;
22107;SDS011;11220;48.812;9.128;2023-04-16T05:37:58;0.10;;;0.10;;
22107;SDS011;11220;48.812;9.128;2023-04-16T05:40:23;0.20;;;0.20;;
22107;SDS011;11220;48.812;9.128;2023-04-16T05:42:49;0.20;;;0.20;;
22107;SDS011;11220;48.812;9.128;2023-04-16T05:45:14;0.20;;;0.20;;
22107;SDS011;11220;48.812;9.128;2023-04-16T05:47:40;0.20;;;0.20;;
22107;SDS011;11220;48.812;9.128;2023-04-16T05:50:05;0.20;;;0.20;;
22107;SDS011;11220;48.812;9.128;2023-04-16T05:52:31;0.20;;;0.20;;
22107;SDS011;11220;48.812;9.128;2023-04-16T05:54:57;0.10;;;0.10;;
22107;SDS011;11220;48.812;9.128;2023-04-16T05:57:25;0.20;;;0.20;;
22107;SDS011;11220;48.812;9.128;2023-04-16T05:59:52;0.20;;;0.20;;
22107;SDS011;11220;48.812;9.128;2023-04-16T06:02:17;0.20;;;0.20;;
22107;SDS011;11220;48.812;9.128;2023-04-16T06:04:43;0.10;;;0.10;;
22107;SDS011;11220;48.812;9.128;2023-04-16T06:07:09;0.25;;;0.13;;
22107;SDS011;11220;48.812;9.128;2023-04-16T06:09:34;0.38;;;0.25;;
22107;SDS011;11220;48.812;9.128;2023-04-16T06:12:00;0.15;;;0.15;;
22107;SDS011;11220;48.812;9.128;2023-04-16T06:14:26;0.40;;;0.40;;
22107;SDS011;11220;48.812;9.128;2023-04-16T06:16:51;0.15;;;0.15;;
22107;SDS011;11220;48.812;9.128;2023-04-16T06:19:17;0.38;;;0.30;;
22107;SDS011;11220;48.812;9.128;2023-04-16T06:21:42;0.20;;;0.20;;
22107;SDS011;11220;48.812;9.128;2023-04-16T06:24:08;0.20;;;0.20;;
22107;SDS011;11220;48.812;9.128;2023-04-16T06:26:33;0.20;;;0.20;;
22107;SDS011;11220;48.812;9.128;2023-04-16T06:28:59;0.30;;;0.30;;
22107;SDS011;11220;48.812;9.128;2023-04-16T06:31:25;0.13;;;0.13;;
22107;SDS011;11220;48.812;9.128;2023-04-16T06:33:50;0.20;;;0.20;;
22107;SDS011;11220;48.812;9.128;2023-04-16T06:36:16;0.22;;;0.22;;
22107;SDS011;11220;48.812;9.128;2023-04-16T06:38:41;0.20;;;0.20;;
22107;SDS011;11220;48.812;9.128;2023-04-16T06:41:07;0.40;;;0.40;;
22107;SDS011;11220;48.812;9.128;2023-04-16T06:43:32;0.35;;;0.20;;
22107;SDS011;11220;48.812;9.128;2023-04-16T06:45:58;0.55;;;0.30;;
22107;SDS011;11220;48.812;9.128;2023-04-16T06:48:24;0.30;;;0.20;;
22107;SDS011;11220;48.812;9.128;2023-04-16T06:50:50;0.22;;;0.20;;
22107;SDS011;11220;48.812;9.128;2023-04-16T06:53:15;0.40;;;0.30;;
22107;SDS011;11220;48.812;9.128;2023-04-16T06:55:41;0.43;;;0.43;;
22107;SDS011;11220;48.812;9.128;2023-04-16T06:58:06;0.40;;;0.40;;
22107;SDS011;11220;48.812;9.128;2023-04-16T07:00:32;0.40;;;0.40;;
22107;SDS011;11220;48.812;9.128;2023-04-16T07:02:59;0.32;;;0.30;;
22107;SDS011;11220;48.812;9.128;2023-04-16T07:05:25;0.45;;;0.45;;
22107;SDS011;11220;48.812;9.128;2023-04-16T07:07:51;0.50;;;0.50;;
22107;SDS011;11220;48.812;9.128;2023-04-16T07:10:16;0.40;;;0.40;;
22107;SDS011;11220;48.812;9.128;2023-04-16T07:12:42;0.47;;;0.47;;
22107;SDS011;11220;48.812;9.128;2023-04-16T07:15:08;0.40;;;0.40;;
22107;SDS011;11220;48.812;9.128;2023-04-16T07:17:34;0.40;;;0.40;;
22107;SDS011;11220;48.812;9.128;2023-04-16T07:19:59;0.35;;;0.35;;
22107;SDS011;11220;48.812;9.128;2023-04-16T07:22:25;0.40;;;0.40;;
22107;SDS011;11220;48.812;9.128;2023-04-16T07:24:50;0.40;;;0.40;;
22107;SDS011;11220;48.812;9.128;2023-04-16T07:27:16;0.50;;;0.50;;
22107;SDS011;11220;48.812;9.128;2023-04-16T07:29:41;0.45;;;0.45;;
22107;SDS011;11220;48.812;9.128;2023-04-16T07:32:09;0.40;;;0.40;;
22107;SDS011;11220;48.812;9.128;2023-04-16T07:34:35;0.47;;;0.30;;
22107;SDS011;11220;48.812;9.128;2023-04-16T07:37:01;0.75;;;0.38;;
22107;SDS011;11220;48.812;9.128;2023-04-16T07:39:26;0.50;;;0.50;;
22107;SDS011;11220;48.812;9.128;2023-04-16T07:41:52;0.40;;;0.40;;
22107;SDS011;11220;48.812;9.128;2023-04-16T07:44:17;0.47;;;0.47;;
22107;SDS011;11220;48.812;9.128;2023-04-16T07:46:43;0.40;;;0.40;;
22107;SDS011;11220;48.812;9.128;2023-04-16T07:49:08;0.57;;;0.50;;
22107;SDS011;11220;48.812;9.128;2023-04-16T07:51:34;0.40;;;0.40;;
22107;SDS011;11220;48.812;9.128;2023-04-16T07:53:59;0.50;;;0.50;;
22107;SDS011;11220;48.812;9.128;2023-04-16T07:56:25;0.30;;;0.30;;
22107;SDS011;11220;48.812;9.128;2023-04-16T07:58:51;0.60;;;0.40;;
22107;SDS011;11220;48.812;9.128;2023-04-16T08:01:16;0.93;;;0.43;;
22107;SDS011;11220;48.812;9.128;2023-04-16T08:03:42;0.55;;;0.50;;
22107;SDS011;11220;48.812;9.128;2023-04-16T08:06:08;0.50;;;0.50;;
22107;SDS011;11220;48.812;9.128;2023-04-16T08:08:33;0.40;;;0.40;;
22107;SDS011;11220;48.812;9.128;2023-04-16T08:10:59;0.65;;;0.45;;
22107;SDS011;11220;48.812;9.128;2023-04-16T08:13:24;0.40;;;0.40;;
22107;SDS011;11220;48.812;9.128;2023-04-16T08:15:50;0.40;;;0.40;;
22107;SDS011;11220;48.812;9.128;2023-04-16T08:18:15;0.50;;;0.50;;
22107;SDS011;11220;48.812;9.128;2023-04-16T08:20:41;0.45;;;0.45;;
22107;SDS011;11220;48.812;9.128;2023-04-16T08:23:07;0.60;;;0.52;;
22107;SDS011;11220;48.812;9.128;2023-04-16T08:25:32;0.47;;;0.47;;
22107;SDS011;11220;48.812;9.128;2023-04-16T08:27:58;0.77;;;0.63;;
22107;SDS011;11220;48.812;9.128;2023-04-16T08:30:23;0.52;;;0.50;;
22107;SDS011;11220;48.812;9.128;2023-04-16T08:32:49;0.65;;;0.57;;
22107;SDS011;11220;48.812;9.128;2023-04-16T08:35:15;0.60;;;0.60;;
22107;SDS011;11220;48.812;9.128;2023-04-16T08:37:40;0.47;;;0.43;;
22107;SDS011;11220;48.812;9.128;2023-04-16T08:40:06;0.50;;;0.50;;
22107;SDS011;11220;48.812;9.128;2023-04-16T08:42:39;0.57;;;0.50;;
22107;SDS011;11220;48.812;9.128;2023-04-16T08:47:34;0.60;;;0.50;;
22107;SDS011;11220;48.812;9.128;2023-04-16T08:50:03;0.50;;;0.43;;
22107;SDS011;11220;48.812;9.128;2023-04-16T08:52:30;0.60;;;0.50;;
22107;SDS011;11220;48.812;9.128;2023-04-16T08:57:29;0.50;;;0.47;;
22107;SDS011;11220;48.812;9.128;2023-04-16T09:00:00;0.55;;;0.55;;
22107;SDS011;11220;48.812;9.128;2023-04-16T09:02:26;0.70;;;0.60;;
22107;SDS011;11220;48.812;9.128;2023-04-16T09:04:52;0.60;;;0.57;;
22107;SDS011;11220;48.812;9.128;2023-04-16T09:07:18;0.43;;;0.35;;
22107;SDS011;11220;48.812;9.128;2023-04-16T09:09:45;0.75;;;0.40;;
22107;SDS011;11220;48.812;9.128;2023-04-16T09:12:12;0.47;;;0.43;;
22107;SDS011;11220;48.812;9.128;2023-04-16T09:14:38;0.43;;;0.40;;
22107;SDS011;11220;48.812;9.128;2023-04-16T09:17:05;0.40;;;0.40;;
22107;SDS011;11220;48.812;9.128;2023-04-16T09:19:33;0.70;;;0.60;;
22107;SDS011;11220;48.812;9.128;2023-04-16T09:21:58;0.47;;;0.47;;
22107;SDS011;11220;48.812;9.128;2023-04-16T09:24:24;0.40;;;0.30;;
22107;SDS011;11220;48.812;9.128;2023-04-16T09:26:50;0.60;;;0.60;;
22107;SDS011;11220;48.812;9.128;2023-04-16T09:32:03;0.60;;;0.60;;
22107;SDS011;11220;48.812;9.128;2023-04-16T09:34:33;0.85;;;0.52;;
22107;SDS011;11220;48.812;9.128;2023-04-16T09:37:15;0.52;;;0.50;;
22107;SDS011;11220;48.812;9.128;2023-04-16T09:39:42;0.80;;;0.63;;
22107;SDS011;11220;48.812;9.128;2023-04-16T09:42:08;0.70;;;0.57;;
22107;SDS011;11220;48.812;9.128;2023-04-16T09:44:34;0.60;;;0.60;;
22107;SDS011;11220;48.812;9.128;2023-04-16T09:47:04;0.50;;;0.50;;
22107;SDS011;11220;48.812;9.128;2023-04-16T09:49:32;0.60;;;0.60;;
22107;SDS011;11220;48.812;9.128;2023-04-16T09:52:00;0.60;;;0.60;;
22107;SDS011;11220;48.812;9.128;2023-04-16T09:54:26;0.60;;;0.40;;
22107;SDS011;11220;48.812;9.128;2023-04-16T09:56:53;0.68;;;0.50;;
22107;SDS011;11220;48.812;9.128;2023-04-16T09:59:21;0.85;;;0.73;;
22107;SDS011;11220;48.812;9.128;2023-04-16T10:01:48;0.98;;;0.70;;
22107;SDS011;11220;48.812;9.128;2023-04-16T10:04:14;0.50;;;0.50;;
22107;SDS011;11220;48.812;9.128;2023-04-16T10:06:40;0.60;;;0.60;;
22107;SDS011;11220;48.812;9.128;2023-04-16T10:09:06;0.55;;;0.55;;
22107;SDS011;11220;48.812;9.128;2023-04-16T10:11:33;0.68;;;0.52;;
22107;SDS011;11220;48.812;9.128;2023-04-16T10:13:59;0.50;;;0.50;;
22107;SDS011;11220;48.812;9.128;2023-04-16T10:16:24;0.70;;;0.63;;
22107;SDS011;11220;48.812;9.128;2023-04-16T10:18:50;0.60;;;0.60;;
22107;SDS011;11220;48.812;9.128;2023-04-16T10:21:18;1.42;;;0.80;;
22107;SDS011;11220;48.812;9.128;2023-04-16T10:23:43;0.75;;;0.55;;
22107;SDS011;11220;48.812;9.128;2023-04-16T10:26:10;0.90;;;0.77;;
22107;SDS011;11220;48.812;9.128;2023-04-16T10:28:36;0.73;;;0.55;;
22107;SDS011;11220;48.812;9.128;2023-04-16T10:31:05;1.20;;;0.60;;
22107;SDS011;11220;48.812;9.128;2023-04-16T10:33:34;0.93;;;0.70;;
22107;SDS011;11220;48.812;9.128;2023-04-16T10:36:08;0.77;;;0.70;;
22107;SDS011;11220;48.812;9.128;2023-04-16T10:38:43;0.60;;;0.60;;
22107;SDS011;11220;48.812;9.128;2023-04-16T10:41:13;0.82;;;0.60;;
22107;SDS011;11220;48.812;9.128;2023-04-16T10:43:40;0.60;;;0.60;;
22107;SDS011;11220;48.812;9.128;2023-04-16T10:46:23;0.85;;;0.68;;
22107;SDS011;11220;48.812;9.128;2023-04-16T10:48:49;0.95;;;0.70;;
22107;SDS011;11220;48.812;9.128;2023-04-16T10:51:27;0.70;;;0.63;;
22107;SDS011;11220;48.812;9.128;2023-04-16T10:54:40;0.73;;;0.60;;
22107;SDS011;11220;48.812;9.128;2023-04-16T10:56:42;0.60;;;0.60;;
22107;SDS011;11220;48.812;9.128;2023-04-16T10:59:09;0.80;;;0.60;;
22107;SDS011;11220;48.812;9.128;2023-04-16T11:01:36;0.73;;;0.60;;
22107;SDS011;11220;48.812;9.128;2023-04-16T11:15:05;0.68;;;0.60;;
22107;SDS011;11220;48.812;9.128;2023-04-16T11:20:20;0.80;;;0.80;;
22107;SDS011;11220;48.812;9.128;2023-04-16T11:22:48;0.80;;;0.65;;
22107;SDS011;11220;48.812;9.128;2023-04-16T11:25:26;0.68;;;0.65;;
22107;SDS011;11220;48.812;9.128;2023-04-16T11:27:58;0.68;;;0.65;;
22107;SDS011;11220;48.812;9.128;2023-04-16T11:30:30;1.15;;;0.95;;
22107;SDS011;11220;48.812;9.128;2023-04-16T11:35:37;1.13;;;0.80;;
22107;SDS011;11220;48.812;9.128;2023-04-16T11:38:03;0.90;;;0.70;;
22107;SDS011;11220;48.812;9.128;2023-04-16T11:40:32;1.55;;;0.80;;
22107;SDS011;11220;48.812;9.128;2023-04-16T11:43:00;0.88;;;0.80;;
22107;SDS011;11220;48.812;9.128;2023-04-16T11:45:27;0.82;;;0.60;;
22107;SDS011;11220;48.812;9.128;2023-04-16T11:47:52;0.47;;;0.47;;
22107;SDS011;11220;48.812;9.128;2023-04-16T11:50:24;0.73;;;0.70;;
22107;SDS011;11220;48.812;9.128;2023-04-16T11:52:52;1.02;;;0.75;;
22107;SDS011;11220;48.812;9.128;2023-04-16T11:55:21;0.80;;;0.80;;
22107;SDS011;11220;48.812;9.128;2023-04-16T11:57:48;0.73;;;0.57;;
22107;SDS011;11220;48.812;9.128;2023-04-16T12:00:14;0.80;;;0.70;;
22107;SDS011;11220;48.812;9.128;2023-04-16T12:02:44;1.00;;;0.77;;
22107;SDS011;11220;48.812;9.128;2023-04-16T12:05:32;0.80;;;0.80;;
22107;SDS011;11220;48.812;9.128;2023-04-16T12:08:03;0.80;;;0.80;;
22107;SDS011;11220;48.812;9.128;2023-04-16T12:10:31;0.70;;;0.70;;
22107;SDS011;11220;48.812;9.128;2023-04-16T12:13:13;0.98;;;0.73;;
22107;SDS011;11220;48.812;9.128;2023-04-16T12:15:44;0.95;;;0.73;;
22107;SDS011;11220;48.812;9.128;2023-04-16T12:18:13;0.95;;;0.70;;
22107;SDS011;11220;48.812;9.128;2023-04-16T12:20:40;0.75;;;0.70;;
22107;SDS011;11220;48.812;9.128;2023-04-16T12:23:07;0.70;;;0.70;;
22107;SDS011;11220;48.812;9.128;2023-04-16T12:25:33;0.60;;;0.60;;
22107;SDS011;11220;48.812;9.128;2023-04-16T12:27:59;1.42;;;0.82;;
22107;SDS011;11220;48.812;9.128;2023-04-16T12:30:25;0.80;;;0.60;;
22107;SDS011;11220;48.812;9.128;2023-04-16T12:35:40;1.05;;;0.70;;
22107;SDS011;11220;48.812;9.128;2023-04-16T12:38:07;1.55;;;1.13;;
22107;SDS011;11220;48.812;9.128;2023-04-16T12:40:33;1.38;;;0.80;;
22107;SDS011;11220;48.812;9.128;2023-04-16T12:42:59;0.95;;;0.80;;
22107;SDS011;11220;48.812;9.128;2023-04-16T12:45:25;1.25;;;0.80;;
22107;SDS011;11220;48.812;9.128;2023-04-16T12:47:50;1.30;;;0.90;;
22107;SDS011;11220;48.812;9.128;2023-04-16T12:50:16;1.15;;;1.05;;
22107;SDS011;11220;48.812;9.128;2023-04-16T12:52:42;0.90;;;0.70;;
22107;SDS011;11220;48.812;9.128;2023-04-16T12:55:08;0.98;;;0.80;;
22107;SDS011;11220;48.812;9.128;2023-04-16T12:57:33;0.77;;;0.50;;
22107;SDS011;11220;48.812;9.128;2023-04-16T12:59:59;0.82;;;0.70;;
22107;SDS011;11220;48.812;9.128;2023-04-16T13:02:26;0.60;;;0.60;;
22107;SDS011;11220;48.812;9.128;2023-04-16T13:04:52;1.10;;;0.73;;
22107;SDS011;11220;48.812;9.128;2023-04-16T13:07:18;0.80;;;0.60;;
22107;SDS011;11220;48.812;9.128;2023-04-16T13:09:44;0.63;;;0.60;;
22107;SDS011;11220;48.812;9.128;2023-04-16T13:12:10;0.57;;;0.52;;
22107;SDS011;11220;48.812;9.128;2023-04-16T13:14:36;0.93;;;0.70;;
22107;SDS011;11220;48.812;9.128;2023-04-16T13:17:01;0.88;;;0.60;;
22107;SDS011;11220;48.812;9.128;2023-04-16T13:19:28;0.75;;;0.68;;
22107;SDS011;11220;48.812;9.128;2023-04-16T13:21:54;0.50;;;0.50;;
22107;SDS011;11220;48.812;9.128;2023-04-16T13:24:19;1.20;;;0.70;;
22107;SDS011;11220;48.812;9.128;2023-04-16T13:26:45;0.95;;;0.63;;
22107;SDS011;11220;48.812;9.128;2023-04-16T13:29:10;0.85;;;0.60;;
22107;SDS011;11220;48.812;9.128;2023-04-16T13:31:36;0.85;;;0.60;;
22107;SDS011;11220;48.812;9.128;2023-04-16T13:34:02;1.02;;;0.57;;
22107;SDS011;11220;48.812;9.128;2023-04-16T13:36:28;0.60;;;0.50;;
22107;SDS011;11220;48.812;9.128;2023-04-16T13:38:56;1.95;;;0.63;;
22107;SDS011;11220;48.812;9.128;2023-04-16T13:41:22;0.90;;;0.80;;
22107;SDS011;11220;48.812;9.128;2023-04-16T13:43:48;0.60;;;0.50;;
22107;SDS011;11220;48.812;9.128;2023-04-16T13:46:13;0.75;;;0.50;;
22107;SDS011;11220;48.812;9.128;2023-04-16T13:48:39;1.00;;;0.60;;
22107;SDS011;11220;48.812;9.128;2023-04-16T13:51:04;1.05;;;0.60;;
22107;SDS011;11220;48.812;9.128;2023-04-16T13:53:30;0.57;;;0.50;;
22107;SDS011;11220;48.812;9.128;2023-04-16T13:55:56;0.80;;;0.80;;
22107;SDS011;11220;48.812;9.128;2023-04-16T13:58:21;0.60;;;0.60;;
22107;SDS011;11220;48.812;9.128;2023-04-16T14:00:47;0.77;;;0.68;;
22107;SDS011;11220;48.812;9.128;2023-04-16T14:03:12;0.80;;;0.60;;
22107;SDS011;11220;48.812;9.128;2023-04-16T14:05:38;1.70;;;0.65;;
22107;SDS011;11220;48.812;9.128;2023-04-16T14:08:05;0.85;;;0.73;;
22107;SDS011;11220;48.812;9.128;2023-04-16T14:10:30;1.10;;;0.80;;
22107;SDS011;11220;48.812;9.128;2023-04-16T14:12:56;0.90;;;0.60;;
22107;SDS011;11220;48.812;9.128;2023-04-16T14:15:22;0.73;;;0.52;;
22107;SDS011;11220;48.812;9.128;2023-04-16T14:17:50;1.05;;;0.75;;
22107;SDS011;11220;48.812;9.128;2023-04-16T14:20:16;1.10;;;0.80;;
22107;SDS011;11220;48.812;9.128;2023-04-16T14:22:41;0.98;;;0.75;;
22107;SDS011;11220;48.812;9.128;2023-04-16T14:25:08;1.08;;;0.70;;
22107;SDS011;11220;48.812;9.128;2023-04-16T14:27:33;0.80;;;0.70;;
22107;SDS011;11220;48.812;9.128;2023-04-16T14:29:59;0.70;;;0.68;;
22107;SDS011;11220;48.812;9.128;2023-04-16T14:32:25;0.88;;;0.60;;
22107;SDS011;11220;48.812;9.128;2023-04-16T14:34:51;0.88;;;0.60;;
22107;SDS011;11220;48.812;9.128;2023-04-16T14:37:17;0.70;;;0.65;;
22107;SDS011;11220;48.812;9.128;2023-04-16T14:39:42;0.82;;;0.70;;
22107;SDS011;11220;48.812;9.128;2023-04-16T14:42:08;0.60;;;0.60;;
22107;SDS011;11220;48.812;9.128;2023-04-16T14:44:34;1.00;;;0.80;;
22107;SDS011;11220;48.812;9.128;2023-04-16T14:47:00;1.05;;;0.70;;
22107;SDS011;11220;48.812;9.128;2023-04-16T14:49:26;0.75;;;0.70;;
22107;SDS011;11220;48.812;9.128;2023-04-16T14:51:51;1.00;;;0.73;;
22107;SDS011;11220;48.812;9.128;2023-04-16T14:54:18;0.82;;;0.63;;
22107;SDS011;11220;48.812;9.128;2023-04-16T14:56:44;1.52;;;0.90;;
22107;SDS011;11220;48.812;9.128;2023-04-16T14:59:11;0.70;;;0.60;;
22107;SDS011;11220;48.812;9.128;2023-04-16T15:01:37;1.00;;;0.70;;
22107;SDS011;11220;48.812;9.128;2023-04-16T15:04:06;1.40;;;0.80;;
22107;SDS011;11220;48.812;9.128;2023-04-16T15:06:32;1.42;;;0.80;;
22107;SDS011;11220;48.812;9.128;2023-04-16T15:08:57;0.98;;;0.88;;
22107;SDS011;11220;48.812;9.128;2023-04-16T15:11:23;1.05;;;0.80;;